sensor_id;sensor_type;location;lat;lon;timestamp;temperature;humidity
73277;DHT22;61501;43.316;5.372;2022-12-18T06:01:15;7.40;99.90
73277;DHT22;61501;43.316;5.372;2022-12-18T06:03:43;7.20;99.90
73277;DHT22;61501;43.316;5.372;2022-12-18T06:06:27;7.20;99.90
73277;DHT22;61501;43.316;5.372;2022-12-18T06:08:56;7.40;99.90
73277;DHT22;61501;43.316;5.372;2022-12-18T06:16:20;7.60;99.90
73277;DHT22;61501;43.316;5.372;2022-12-18T06:18:46;7.40;99.90
73277;DHT22;61501;43.316;5.372;2022-12-18T06:21:12;7.40;99.90
73277;DHT22;61501;43.316;5.372;2022-12-18T06:23:37;7.50;99.90
73277;DHT22;61501;43.316;5.372;2022-12-18T06:26:08;7.50;99.90
73277;DHT22;61501;43.316;5.372;2022-12-18T06:28:33;7.40;99.90
73277;DHT22;61501;43.316;5.372;2022-12-18T06:30:59;7.40;99.90
73277;DHT22;61501;43.316;5.372;2022-12-18T06:33:28;7.50;99.90
73277;DHT22;61501;43.316;5.372;2022-12-18T06:35:54;7.50;99.90
73277;DHT22;61501;43.316;5.372;2022-12-18T06:38:25;7.50;99.90
73277;DHT22;61501;43.316;5.372;2022-12-18T06:40:51;7.50;99.90
73277;DHT22;61501;43.316;5.372;2022-12-18T06:43:16;7.60;99.90
73277;DHT22;61501;43.316;5.372;2022-12-18T06:45:42;7.50;99.90
73277;DHT22;61501;43.316;5.372;2022-12-18T06:48:07;7.60;99.90
73277;DHT22;61501;43.316;5.372;2022-12-18T06:50:33;7.60;99.90
73277;DHT22;61501;43.316;5.372;2022-12-18T06:52:59;7.60;99.90
73277;DHT22;61501;43.316;5.372;2022-12-18T06:55:25;7.60;99.90
73277;DHT22;61501;43.316;5.372;2022-12-18T06:57:51;7.70;99.90
73277;DHT22;61501;43.316;5.372;2022-12-18T07:00:17;7.70;99.90
73277;DHT22;61501;43.316;5.372;2022-12-18T07:02:42;7.60;99.90
73277;DHT22;61501;43.316;5.372;2022-12-18T07:05:08;7.60;99.90
73277;DHT22;61501;43.316;5.372;2022-12-18T07:07:34;7.50;99.90
73277;DHT22;61501;43.316;5.372;2022-12-18T07:10:00;7.50;99.90
73277;DHT22;61501;43.316;5.372;2022-12-18T07:12:29;7.60;99.90
73277;DHT22;61501;43.316;5.372;2022-12-18T07:14:56;7.50;99.90
73277;DHT22;61501;43.316;5.372;2022-12-18T07:17:21;7.50;99.90
73277;DHT22;61501;43.316;5.372;2022-12-18T07:19:47;7.50;99.90
73277;DHT22;61501;43.316;5.372;2022-12-18T07:22:12;7.60;99.90
73277;DHT22;61501;43.316;5.372;2022-12-18T07:24:38;7.60;99.90
73277;DHT22;61501;43.316;5.372;2022-12-18T07:27:04;7.60;99.90
73277;DHT22;61501;43.316;5.372;2022-12-18T07:29:29;7.60;99.90
73277;DHT22;61501;43.316;5.372;2022-12-18T07:31:55;7.60;99.90
73277;DHT22;61501;43.316;5.372;2022-12-18T07:34:21;7.60;99.90
73277;DHT22;61501;43.316;5.372;2022-12-18T07:36:46;7.70;99.90
73277;DHT22;61501;43.316;5.372;2022-12-18T07:39:12;7.70;99.90
73277;DHT22;61501;43.316;5.372;2022-12-18T07:41:38;7.70;99.90
73277;DHT22;61501;43.316;5.372;2022-12-18T07:44:03;7.80;99.90
73277;DHT22;61501;43.316;5.372;2022-12-18T07:46:29;7.70;99.90
73277;DHT22;61501;43.316;5.372;2022-12-18T07:48:55;7.70;99.90
73277;DHT22;61501;43.316;5.372;2022-12-18T07:51:20;7.80;99.90
73277;DHT22;61501;43.316;5.372;2022-12-18T07:53:46;7.90;99.90
73277;DHT22;61501;43.316;5.372;2022-12-18T07:56:12;7.90;99.90
73277;DHT22;61501;43.316;5.372;2022-12-18T07:58:38;7.90;99.90
73277;DHT22;61501;43.316;5.372;2022-12-18T08:01:05;8.00;99.90
73277;DHT22;61501;43.316;5.372;2022-12-18T08:03:32;8.00;99.90
73277;DHT22;61501;43.316;5.372;2022-12-18T08:06:02;8.10;99.90
73277;DHT22;61501;43.316;5.372;2022-12-18T08:08:28;8.00;99.90
73277;DHT22;61501;43.316;5.372;2022-12-18T08:10:55;7.80;99.90
73277;DHT22;61501;43.316;5.372;2022-12-18T08:13:21;8.10;99.90
73277;DHT22;61501;43.316;5.372;2022-12-18T08:15:54;8.10;99.90
73277;DHT22;61501;43.316;5.372;2022-12-18T08:18:20;8.00;99.90
73277;DHT22;61501;43.316;5.372;2022-12-18T08:55:18;9.10;99.90
73277;DHT22;61501;43.316;5.372;2022-12-18T08:57:48;9.40;99.90
73277;DHT22;61501;43.316;5.372;2022-12-18T09:00:14;9.50;99.90
73277;DHT22;61501;43.316;5.372;2022-12-18T09:05:06;9.40;99.90
73277;DHT22;61501;43.316;5.372;2022-12-18T09:07:32;9.50;99.90
73277;DHT22;61501;43.316;5.372;2022-12-18T09:12:25;9.60;99.90
73277;DHT22;61501;43.316;5.372;2022-12-18T23:29:10;13.00;99.90
73277;DHT22;61501;43.316;5.372;2022-12-18T23:31:37;13.00;99.90
73277;DHT22;61501;43.316;5.372;2022-12-18T23:43:52;12.90;99.90
73277;DHT22;61501;43.316;5.372;2022-12-18T23:46:29;12.80;99.90
73277;DHT22;61501;43.316;5.372;2022-12-18T23:56:19;12.70;99.90
73277;DHT22;61501;43.316;5.372;2022-12-18T23:58:48;12.70;99.90
